Time;durP1;ratioP1;P1;durP2;ratioP2;P2;SDS_P1;SDS_P2;PMS_P1;PMS_P2;Temp;Humidity;BMP_temperature;BMP_pressure;BME280_temperature;BME280_humidity;BME280_pressure;Samples;Min_cycle;Max_cycle;Signal;HPM_P1;HPM_P2
2021/01/17 00:00:46;;;;;;;1.97;1.10;;;;;;;;;;5115427;28;20026;-55
2021/01/17 00:03:13;;;;;;;3.47;1.30;;;;;;;;;;5115461;28;20035;-55
2021/01/17 00:05:40;;;;;;;3.47;1.60;;;;;;;;;;5115193;28;20023;-55
2021/01/17 00:08:08;;;;;;;8.20;3.53;;;;;;;;;;5115438;28;20032;-55
2021/01/17 00:10:35;;;;;;;8.90;5.30;;;;;;;;;;5115283;27;20497;-55
2021/01/17 00:13:02;;;;;;;9.57;5.73;;;;;;;;;;5115200;28;20448;-55
2021/01/17 00:15:29;;;;;;;11.47;5.00;;;;;;;;;;5115094;28;20115;-55
2021/01/17 00:17:56;;;;;;;10.33;5.00;;;;;;;;;;5114959;28;20133;-55
2021/01/17 00:20:23;;;;;;;9.70;5.10;;;;;;;;;;5115054;28;20024;-55
2021/01/17 00:22:53;;;;;;;8.03;5.10;;;;;;;;;;5115182;28;20561;-55
2021/01/17 00:25:21;;;;;;;17.57;8.17;;;;;;;;;;5115063;28;20054;-55
2021/01/17 00:27:52;;;;;;;10.97;6.37;;;;;;;;;;5114917;28;20492;-55
2021/01/17 00:30:21;;;;;;;10.67;6.30;;;;;;;;;;5114909;28;20042;-55
2021/01/17 00:32:51;;;;;;;7.87;4.70;;;;;;;;;;5114985;28;20055;-55
2021/01/17 00:35:18;;;;;;;7.43;4.50;;;;;;;;;;5114804;28;20023;-55
2021/01/17 00:37:45;;;;;;;10.20;5.33;;;;;;;;;;5114725;28;20031;-55
2021/01/17 00:40:12;;;;;;;10.63;4.10;;;;;;;;;;5114532;28;20030;-55
2021/01/17 00:42:44;;;;;;;7.20;4.37;;;;;;;;;;5114576;28;20047;-55
2021/01/17 00:45:12;;;;;;;8.53;3.30;;;;;;;;;;5114481;28;20027;-55
2021/01/17 00:47:39;;;;;;;7.53;3.90;;;;;;;;;;5114518;28;20028;-55
2021/01/17 00:50:06;;;;;;;8.17;3.40;;;;;;;;;;5114484;28;20028;-55
2021/01/17 00:52:32;;;;;;;7.30;3.50;;;;;;;;;;5114474;28;20034;-55
2021/01/17 00:54:59;;;;;;;6.03;3.87;;;;;;;;;;5114364;28;20532;-55
2021/01/17 00:57:27;;;;;;;6.43;3.13;;;;;;;;;;5113305;28;20474;-55
2021/01/17 00:59:54;;;;;;;8.17;3.47;;;;;;;;;;5114189;28;20031;-55
2021/01/17 01:02:21;;;;;;;4.67;2.93;;;;;;;;;;5114157;28;20028;-55
2021/01/17 01:04:47;;;;;;;6.87;3.30;;;;;;;;;;5114052;28;20048;-55
2021/01/17 01:07:14;;;;;;;6.43;3.10;;;;;;;;;;5114267;28;20054;-55
2021/01/17 01:09:41;;;;;;;7.13;3.10;;;;;;;;;;5114214;27;20089;-56
2021/01/17 01:12:08;;;;;;;6.23;2.87;;;;;;;;;;5114094;28;20055;-55
2021/01/17 01:14:35;;;;;;;6.37;2.63;;;;;;;;;;5113942;28;20031;-55
2021/01/17 01:17:01;;;;;;;6.63;2.73;;;;;;;;;;5113987;28;20023;-55
2021/01/17 01:19:28;;;;;;;5.53;2.80;;;;;;;;;;5113925;28;20031;-55
2021/01/17 01:21:55;;;;;;;3.93;2.53;;;;;;;;;;5113939;28;20070;-55
2021/01/17 01:24:21;;;;;;;6.47;2.60;;;;;;;;;;5113831;28;20024;-55
2021/01/17 01:26:48;;;;;;;5.13;2.67;;;;;;;;;;5113835;28;20035;-55
2021/01/17 01:29:15;;;;;;;6.47;3.07;;;;;;;;;;5113901;28;20486;-55
2021/01/17 01:31:45;;;;;;;8.07;2.73;;;;;;;;;;5113723;28;20024;-55
2021/01/17 01:34:12;;;;;;;6.93;3.23;;;;;;;;;;5113574;28;20039;-55
2021/01/17 01:36:39;;;;;;;6.27;3.53;;;;;;;;;;5113613;28;20110;-55
2021/01/17 01:39:07;;;;;;;4.97;2.83;;;;;;;;;;5113613;28;20398;-55
2021/01/17 01:41:34;;;;;;;10.27;3.23;;;;;;;;;;5113638;28;20027;-55
2021/01/17 01:44:02;;;;;;;5.17;3.27;;;;;;;;;;5113683;28;20027;-55
2021/01/17 01:46:29;;;;;;;5.37;3.23;;;;;;;;;;5113511;28;20030;-55
2021/01/17 01:48:57;;;;;;;6.50;2.70;;;;;;;;;;5113450;28;20145;-55
2021/01/17 01:51:25;;;;;;;6.00;3.40;;;;;;;;;;5113567;28;20413;-55
2021/01/17 01:53:53;;;;;;;6.80;3.10;;;;;;;;;;5113401;28;20424;-55
2021/01/17 01:56:20;;;;;;;9.37;3.20;;;;;;;;;;5113355;28;20085;-55
2021/01/17 01:58:47;;;;;;;5.47;2.80;;;;;;;;;;5113275;28;20039;-55
2021/01/17 02:01:14;;;;;;;7.63;2.97;;;;;;;;;;5113469;28;20095;-55
2021/01/17 02:03:46;;;;;;;7.17;3.57;;;;;;;;;;5113342;28;20066;-55
2021/01/17 02:06:13;;;;;;;8.70;4.07;;;;;;;;;;5113101;28;20115;-55
2021/01/17 02:08:39;;;;;;;11.70;3.67;;;;;;;;;;5113097;28;20028;-55
2021/01/17 02:11:30;;;;;;;11.37;4.20;;;;;;;;;;5113212;27;20130;-55
2021/01/17 02:14:04;;;;;;;7.90;3.17;;;;;;;;;;5113117;28;20031;-55
2021/01/17 02:16:31;;;;;;;5.13;3.20;;;;;;;;;;5113299;28;20026;-55
2021/01/17 02:18:58;;;;;;;5.07;3.07;;;;;;;;;;5113307;28;20035;-55
2021/01/17 02:21:25;;;;;;;5.00;3.00;;;;;;;;;;5113058;28;20032;-55
2021/01/17 02:24:04;;;;;;;6.30;3.73;;;;;;;;;;5113094;28;20432;-55
2021/01/17 02:26:31;;;;;;;10.40;4.27;;;;;;;;;;5113150;28;20027;-55
2021/01/17 02:28:59;;;;;;;11.33;3.73;;;;;;;;;;5113014;28;20027;-55
2021/01/17 02:31:26;;;;;;;7.03;3.63;;;;;;;;;;5113085;28;20027;-55
2021/01/17 02:33:54;;;;;;;7.50;4.13;;;;;;;;;;5112888;28;20055;-55
2021/01/17 02:36:32;;;;;;;7.17;4.10;;;;;;;;;;5112976;28;20038;-55
2021/01/17 02:39:11;;;;;;;6.67;3.93;;;;;;;;;;5112804;28;20040;-55
2021/01/17 02:41:54;;;;;;;9.30;4.57;;;;;;;;;;5112802;28;20421;-55
2021/01/17 02:44:21;;;;;;;6.47;3.20;;;;;;;;;;5112804;28;20198;-55
2021/01/17 02:46:48;;;;;;;10.47;4.97;;;;;;;;;;5112960;28;20028;-55
2021/01/17 02:49:15;;;;;;;6.80;3.90;;;;;;;;;;5112964;28;20462;-55
2021/01/17 02:51:42;;;;;;;6.77;3.03;;;;;;;;;;5112882;28;20466;-55
2021/01/17 02:54:14;;;;;;;9.43;3.37;;;;;;;;;;5112702;28;20032;-55
2021/01/17 02:56:42;;;;;;;5.47;2.70;;;;;;;;;;5112782;28;20031;-55
2021/01/17 02:59:15;;;;;;;9.20;3.73;;;;;;;;;;5112617;28;20070;-55
2021/01/17 03:01:44;;;;;;;7.53;3.90;;;;;;;;;;5113102;28;20028;-55
2021/01/17 03:04:40;;;;;;;16.20;4.40;;;;;;;;;;5112731;28;20024;-55
2021/01/17 03:07:10;;;;;;;10.63;3.17;;;;;;;;;;5091367;28;20024;-55
2021/01/17 03:09:37;;;;;;;7.63;3.73;;;;;;;;;;5112922;28;20466;-55
2021/01/17 03:12:04;;;;;;;8.43;3.17;;;;;;;;;;5112631;27;20054;-55
2021/01/17 03:14:32;;;;;;;9.93;3.63;;;;;;;;;;5112692;28;20181;-55
2021/01/17 03:16:59;;;;;;;11.90;3.60;;;;;;;;;;5112606;28;20328;-55
2021/01/17 03:19:26;;;;;;;8.77;3.80;;;;;;;;;;5112801;28;20050;-55
2021/01/17 03:21:53;;;;;;;10.30;5.27;;;;;;;;;;5114912;28;20169;-55
2021/01/17 03:24:19;;;;;;;17.10;9.43;;;;;;;;;;5116057;28;20050;-55
2021/01/17 03:26:46;;;;;;;10.13;6.57;;;;;;;;;;5116187;28;20355;-55
2021/01/17 03:29:13;;;;;;;12.30;5.00;;;;;;;;;;5116224;28;20081;-55
2021/01/17 03:31:40;;;;;;;15.03;4.80;;;;;;;;;;5116192;28;20049;-55
2021/01/17 03:34:06;;;;;;;8.60;4.80;;;;;;;;;;5116354;28;20100;-55
2021/01/17 03:36:33;;;;;;;7.23;4.37;;;;;;;;;;5116041;28;20046;-55
2021/01/17 03:39:00;;;;;;;8.17;4.30;;;;;;;;;;5115755;28;20035;-55
2021/01/17 03:41:27;;;;;;;8.53;4.67;;;;;;;;;;5116046;28;20051;-55
2021/01/17 03:43:54;;;;;;;9.23;4.77;;;;;;;;;;5115841;28;20426;-55
2021/01/17 03:46:20;;;;;;;11.60;6.37;;;;;;;;;;5115768;28;20041;-55
2021/01/17 03:48:49;;;;;;;22.60;9.03;;;;;;;;;;5116013;28;20024;-55
2021/01/17 03:51:16;;;;;;;15.07;5.63;;;;;;;;;;5115808;28;20116;-55
2021/01/17 03:53:43;;;;;;;10.67;5.73;;;;;;;;;;5115709;28;20019;-55
2021/01/17 03:56:09;;;;;;;14.73;6.47;;;;;;;;;;5115697;28;20034;-55
2021/01/17 03:58:36;;;;;;;11.90;6.20;;;;;;;;;;5115400;28;20164;-55
2021/01/17 04:01:03;;;;;;;10.63;5.30;;;;;;;;;;5115494;28;20024;-55
2021/01/17 04:03:30;;;;;;;10.23;6.13;;;;;;;;;;5115292;28;20070;-55
2021/01/17 04:05:57;;;;;;;11.07;6.27;;;;;;;;;;5115232;28;20020;-55
2021/01/17 04:08:23;;;;;;;10.83;5.97;;;;;;;;;;5115274;28;20485;-55
2021/01/17 04:10:50;;;;;;;12.30;6.33;;;;;;;;;;5115500;27;20058;-55
2021/01/17 04:13:17;;;;;;;13.23;6.20;;;;;;;;;;5097021;28;20024;-55
2021/01/17 04:15:44;;;;;;;11.23;5.93;;;;;;;;;;5115254;28;20027;-55
2021/01/17 04:18:11;;;;;;;26.70;6.30;;;;;;;;;;5115017;28;20549;-55
2021/01/17 04:20:38;;;;;;;9.67;5.20;;;;;;;;;;5115081;28;20386;-55
2021/01/17 04:23:05;;;;;;;7.23;4.73;;;;;;;;;;5115176;28;20028;-55
2021/01/17 04:25:32;;;;;;;13.00;5.87;;;;;;;;;;5096768;28;20110;-55
2021/01/17 04:28:00;;;;;;;12.30;5.67;;;;;;;;;;5114991;28;20124;-55
2021/01/17 04:30:31;;;;;;;17.90;5.80;;;;;;;;;;5115058;28;20024;-54
2021/01/17 04:32:58;;;;;;;12.37;4.90;;;;;;;;;;5114911;28;20051;-55
2021/01/17 04:35:25;;;;;;;9.03;4.00;;;;;;;;;;5114906;28;20027;-55
2021/01/17 04:37:52;;;;;;;10.93;3.87;;;;;;;;;;5114802;28;20067;-55
2021/01/17 04:40:19;;;;;;;8.33;4.10;;;;;;;;;;5114828;28;20038;-55
2021/01/17 04:42:49;;;;;;;8.40;4.00;;;;;;;;;;5114699;28;20077;-55
2021/01/17 04:45:17;;;;;;;11.33;4.47;;;;;;;;;;5114539;28;20080;-55
2021/01/17 04:47:49;;;;;;;6.93;4.33;;;;;;;;;;5114551;28;20386;-55
2021/01/17 04:50:19;;;;;;;8.37;3.60;;;;;;;;;;5114550;28;20470;-55
2021/01/17 04:52:46;;;;;;;9.00;3.93;;;;;;;;;;5114609;28;20149;-55
2021/01/17 04:55:13;;;;;;;5.83;3.27;;;;;;;;;;5114486;28;20030;-55
2021/01/17 04:58:07;;;;;;;8.53;4.17;;;;;;;;;;5114046;28;20032;-55
2021/01/17 05:00:34;;;;;;;7.57;4.17;;;;;;;;;;5114437;28;20026;-55
2021/01/17 05:03:16;;;;;;;5.90;3.20;;;;;;;;;;5114259;28;20490;-54
2021/01/17 05:06:01;;;;;;;4.13;2.70;;;;;;;;;;5114198;28;20024;-55
2021/01/17 05:08:28;;;;;;;4.50;2.53;;;;;;;;;;5114337;28;20352;-55
2021/01/17 05:11:02;;;;;;;6.13;3.17;;;;;;;;;;5114126;27;20122;-55
2021/01/17 05:13:38;;;;;;;4.50;2.25;;;;;;;;;;5114282;28;20505;-55
2021/01/17 05:16:06;;;;;;;5.33;2.80;;;;;;;;;;5114112;28;20024;-55
2021/01/17 05:18:33;;;;;;;3.80;2.40;;;;;;;;;;5113873;28;20110;-54
2021/01/17 05:21:02;;;;;;;6.50;2.60;;;;;;;;;;5113848;28;20406;-55
2021/01/17 05:23:35;;;;;;;7.13;2.90;;;;;;;;;;5113930;28;20098;-54
2021/01/17 05:26:03;;;;;;;7.03;3.00;;;;;;;;;;5114124;28;20020;-54
2021/01/17 05:28:31;;;;;;;4.53;2.60;;;;;;;;;;5113783;28;20465;-56
2021/01/17 05:30:58;;;;;;;5.80;3.07;;;;;;;;;;5113800;28;20027;-56
2021/01/17 05:33:29;;;;;;;3.97;2.47;;;;;;;;;;5113752;28;20034;-55
2021/01/17 05:35:56;;;;;;;5.37;2.37;;;;;;;;;;5113788;28;20374;-55
2021/01/17 05:38:24;;;;;;;3.97;2.30;;;;;;;;;;5113536;28;20036;-55
2021/01/17 05:40:50;;;;;;;5.23;2.40;;;;;;;;;;5113801;28;20051;-55
2021/01/17 05:43:17;;;;;;;6.80;3.40;;;;;;;;;;5113255;28;20024;-55
2021/01/17 05:45:44;;;;;;;5.17;3.07;;;;;;;;;;5113835;28;20027;-54
2021/01/17 05:48:11;;;;;;;7.70;2.50;;;;;;;;;;5113497;28;20335;-54
2021/01/17 05:50:42;;;;;;;3.50;1.97;;;;;;;;;;5113499;28;20359;-55
2021/01/17 05:53:09;;;;;;;5.50;2.40;;;;;;;;;;5113452;28;20386;-55
2021/01/17 05:55:37;;;;;;;6.33;2.60;;;;;;;;;;5113296;28;20240;-55
2021/01/17 05:58:23;;;;;;;4.47;2.50;;;;;;;;;;5113302;28;20063;-55
2021/01/17 06:00:55;;;;;;;4.80;2.83;;;;;;;;;;5113315;28;20433;-55
2021/01/17 06:03:23;;;;;;;4.73;3.13;;;;;;;;;;5113198;28;20106;-56
2021/01/17 06:05:51;;;;;;;4.53;2.60;;;;;;;;;;5113328;28;20055;-55
2021/01/17 06:08:21;;;;;;;6.97;2.87;;;;;;;;;;5113259;28;20320;-54
2021/01/17 06:10:48;;;;;;;3.80;2.40;;;;;;;;;;5113317;28;20394;-55
2021/01/17 06:13:26;;;;;;;10.33;2.97;;;;;;;;;;5113281;28;20726;-55
2021/01/17 06:15:54;;;;;;;4.23;2.43;;;;;;;;;;5113236;28;20714;-54
2021/01/17 06:18:22;;;;;;;3.83;2.40;;;;;;;;;;5113249;28;20292;-54
2021/01/17 06:20:56;;;;;;;6.00;2.70;;;;;;;;;;5113140;28;20335;-54
2021/01/17 06:23:23;;;;;;;9.18;2.95;;;;;;;;;;5113186;28;20252;-54
2021/01/17 06:26:05;;;;;;;5.30;2.60;;;;;;;;;;5113098;28;20390;-54
2021/01/17 06:28:39;;;;;;;4.67;2.80;;;;;;;;;;5113196;28;20243;-54
2021/01/17 06:31:07;;;;;;;4.37;2.53;;;;;;;;;;5113099;28;20032;-54
2021/01/17 06:33:34;;;;;;;4.07;2.50;;;;;;;;;;5113287;28;20279;-54
2021/01/17 06:36:11;;;;;;;9.70;3.07;;;;;;;;;;5113051;28;20347;-54
2021/01/17 06:38:38;;;;;;;4.93;2.60;;;;;;;;;;5112910;28;20634;-54
2021/01/17 06:41:05;;;;;;;4.03;2.57;;;;;;;;;;5112965;28;20259;-54
2021/01/17 06:43:32;;;;;;;4.17;2.10;;;;;;;;;;5113051;28;20248;-54
2021/01/17 06:45:59;;;;;;;3.37;2.00;;;;;;;;;;5112886;28;20331;-54
2021/01/17 06:48:27;;;;;;;3.67;2.30;;;;;;;;;;5113007;28;20254;-54
2021/01/17 06:50:54;;;;;;;4.07;2.50;;;;;;;;;;5113016;28;20030;-55
2021/01/17 06:53:24;;;;;;;4.20;2.80;;;;;;;;;;5112823;28;20258;-54
2021/01/17 06:56:14;;;;;;;5.63;3.13;;;;;;;;;;5114085;28;20028;-54
2021/01/17 06:58:41;;;;;;;4.20;2.40;;;;;;;;;;5116808;28;20535;-54
2021/01/17 07:01:08;;;;;;;5.93;3.60;;;;;;;;;;5116759;28;20725;-54
2021/01/17 07:03:48;;;;;;;6.67;4.20;;;;;;;;;;5116699;28;20248;-54
2021/01/17 07:06:38;;;;;;;10.73;4.57;;;;;;;;;;5116622;28;20704;-54
2021/01/17 07:09:09;;;;;;;9.87;4.17;;;;;;;;;;5069438;28;20032;-54
2021/01/17 07:11:48;;;;;;;7.17;4.23;;;;;;;;;;5116403;27;20783;-54
2021/01/17 07:14:17;;;;;;;8.13;4.57;;;;;;;;;;5116388;28;20320;-54
2021/01/17 07:16:49;;;;;;;9.40;4.23;;;;;;;;;;5116471;28;20028;-54
2021/01/17 07:19:20;;;;;;;7.37;3.27;;;;;;;;;;5116336;28;20652;-54
2021/01/17 07:21:50;;;;;;;5.53;3.33;;;;;;;;;;5116404;28;20240;-54
2021/01/17 07:24:20;;;;;;;4.67;2.47;;;;;;;;;;5116232;28;20252;-54
2021/01/17 07:27:06;;;;;;;5.27;2.70;;;;;;;;;;5116247;28;20381;-54
2021/01/17 07:29:35;;;;;;;5.80;2.97;;;;;;;;;;5116300;28;20248;-54
2021/01/17 07:32:02;;;;;;;7.23;3.30;;;;;;;;;;5116097;28;20024;-54
2021/01/17 07:34:31;;;;;;;6.53;3.10;;;;;;;;;;5115982;28;20425;-54
2021/01/17 07:37:01;;;;;;;6.00;3.23;;;;;;;;;;5116118;28;20016;-54
2021/01/17 07:39:33;;;;;;;15.23;3.33;;;;;;;;;;5116211;28;20583;-54
2021/01/17 07:42:02;;;;;;;5.33;2.57;;;;;;;;;;5115979;28;20386;-54
2021/01/17 07:44:32;;;;;;;5.50;3.10;;;;;;;;;;5115769;28;20274;-54
2021/01/17 07:47:05;;;;;;;5.00;3.00;;;;;;;;;;5115942;28;20622;-54
2021/01/17 07:49:32;;;;;;;5.93;2.60;;;;;;;;;;5115775;28;20287;-54
2021/01/17 07:52:01;;;;;;;4.73;2.60;;;;;;;;;;5115761;28;20301;-54
2021/01/17 07:54:30;;;;;;;5.23;2.73;;;;;;;;;;5115820;28;20806;-54
2021/01/17 07:56:58;;;;;;;7.43;2.70;;;;;;;;;;5115675;28;20259;-54
2021/01/17 07:59:27;;;;;;;4.87;2.57;;;;;;;;;;5115708;28;20247;-54
2021/01/17 08:01:56;;;;;;;8.50;4.80;;;;;;;;;;5115478;28;20084;-54
2021/01/17 08:04:23;;;;;;;6.30;3.20;;;;;;;;;;5115304;28;20283;-54
2021/01/17 08:06:50;;;;;;;5.63;3.23;;;;;;;;;;5114966;28;20705;-54
2021/01/17 08:09:37;;;;;;;12.87;3.13;;;;;;;;;;5115379;28;20354;-54
2021/01/17 08:12:04;;;;;;;7.27;2.80;;;;;;;;;;5114915;27;20275;-54
2021/01/17 08:14:34;;;;;;;7.20;2.60;;;;;;;;;;5115226;28;20252;-55
2021/01/17 08:17:08;;;;;;;5.37;2.70;;;;;;;;;;5115271;28;20594;-54
2021/01/17 08:19:35;;;;;;;6.17;3.47;;;;;;;;;;5115121;28;20256;-54
2021/01/17 08:22:18;;;;;;;5.97;2.90;;;;;;;;;;5115111;28;20244;-54
2021/01/17 08:24:45;;;;;;;7.33;3.10;;;;;;;;;;5096849;28;20839;-54
2021/01/17 08:27:32;;;;;;;6.90;3.80;;;;;;;;;;5114986;28;20267;-54
2021/01/17 08:30:08;;;;;;;5.93;3.20;;;;;;;;;;5115002;28;20253;-54
2021/01/17 08:32:43;;;;;;;6.03;2.70;;;;;;;;;;5115095;28;20305;-54
2021/01/17 08:35:19;;;;;;;4.68;2.63;;;;;;;;;;5114809;28;20289;-54
2021/01/17 08:37:47;;;;;;;6.03;2.87;;;;;;;;;;5114752;28;20390;-54
2021/01/17 08:40:40;;;;;;;6.80;2.53;;;;;;;;;;5114820;28;20248;-54
2021/01/17 08:43:07;;;;;;;4.97;2.80;;;;;;;;;;5114759;28;20769;-54
2021/01/17 08:45:40;;;;;;;5.63;3.17;;;;;;;;;;5114583;28;20236;-54
2021/01/17 08:48:19;;;;;;;6.53;3.20;;;;;;;;;;5114730;28;20288;-54
2021/01/17 08:50:46;;;;;;;5.13;2.57;;;;;;;;;;5114611;28;20811;-54
2021/01/17 08:53:14;;;;;;;5.37;3.80;;;;;;;;;;5114521;28;20247;-54
2021/01/17 08:55:42;;;;;;;7.73;3.40;;;;;;;;;;5114487;28;20248;-54
2021/01/17 08:58:09;;;;;;;7.23;3.47;;;;;;;;;;5114321;28;20359;-54
2021/01/17 09:00:57;;;;;;;4.77;2.67;;;;;;;;;;5114395;28;20331;-54
2021/01/17 09:03:25;;;;;;;4.80;2.87;;;;;;;;;;5114439;28;20325;-54
2021/01/17 09:05:54;;;;;;;4.90;2.40;;;;;;;;;;5114156;28;20614;-54
2021/01/17 09:08:21;;;;;;;5.40;3.20;;;;;;;;;;5114373;28;20248;-54
2021/01/17 09:10:48;;;;;;;5.83;3.50;;;;;;;;;;5114234;27;20772;-55
2021/01/17 09:13:18;;;;;;;4.70;2.97;;;;;;;;;;5114280;28;20339;-54
2021/01/17 09:16:08;;;;;;;7.43;3.57;;;;;;;;;;5114147;28;20310;-54
2021/01/17 09:18:38;;;;;;;8.87;3.63;;;;;;;;;;5113253;28;20294;-54
2021/01/17 09:21:08;;;;;;;4.23;2.73;;;;;;;;;;5114044;28;20248;-54
2021/01/17 09:23:41;;;;;;;6.00;3.80;;;;;;;;;;5113844;28;20310;-54
2021/01/17 09:26:08;;;;;;;6.53;3.77;;;;;;;;;;5113934;28;20323;-54
2021/01/17 09:28:35;;;;;;;8.10;3.23;;;;;;;;;;5113896;28;20259;-54
2021/01/17 09:31:02;;;;;;;6.70;3.73;;;;;;;;;;5113805;28;20249;-54
2021/01/17 09:33:30;;;;;;;5.07;3.13;;;;;;;;;;5113695;28;20290;-54
2021/01/17 09:35:57;;;;;;;10.87;3.23;;;;;;;;;;5113732;28;20256;-54
2021/01/17 09:38:24;;;;;;;5.27;3.03;;;;;;;;;;5113659;28;20374;-54
2021/01/17 09:40:53;;;;;;;6.33;3.40;;;;;;;;;;5113622;28;20602;-54
2021/01/17 09:43:20;;;;;;;7.00;3.90;;;;;;;;;;5113529;28;20782;-54
2021/01/17 09:45:51;;;;;;;6.60;3.57;;;;;;;;;;5113747;28;20302;-54
2021/01/17 09:48:18;;;;;;;4.80;3.10;;;;;;;;;;5113850;28;20738;-54
2021/01/17 09:50:45;;;;;;;5.90;3.23;;;;;;;;;;5113473;28;20385;-54
2021/01/17 09:53:12;;;;;;;7.87;3.57;;;;;;;;;;5113636;28;20338;-54
2021/01/17 09:55:40;;;;;;;4.97;3.17;;;;;;;;;;5113320;28;20252;-54
2021/01/17 09:58:08;;;;;;;7.83;3.67;;;;;;;;;;5113348;28;20293;-54
2021/01/17 10:00:34;;;;;;;7.73;3.50;;;;;;;;;;5113474;28;20343;-54
2021/01/17 10:03:11;;;;;;;7.63;3.60;;;;;;;;;;5113294;28;20251;-54
2021/01/17 10:05:38;;;;;;;6.77;3.43;;;;;;;;;;5113267;28;20718;-54
2021/01/17 10:08:05;;;;;;;7.13;3.83;;;;;;;;;;5113114;28;20619;-54
2021/01/17 10:10:32;;;;;;;4.57;3.10;;;;;;;;;;5113231;28;20266;-54
2021/01/17 10:12:59;;;;;;;6.00;3.27;;;;;;;;;;5112324;28;20283;-54
2021/01/17 10:15:27;;;;;;;6.73;3.20;;;;;;;;;;5113264;28;20248;-54
2021/01/17 10:17:54;;;;;;;8.17;3.43;;;;;;;;;;5113022;28;20267;-54
2021/01/17 10:20:27;;;;;;;7.10;3.67;;;;;;;;;;5113127;28;20260;-54
2021/01/17 10:23:04;;;;;;;5.47;3.67;;;;;;;;;;5113121;28;20824;-54
2021/01/17 10:25:32;;;;;;;7.93;3.27;;;;;;;;;;5113192;28;20259;-54
2021/01/17 10:28:01;;;;;;;5.73;3.97;;;;;;;;;;5113096;28;20244;-54
2021/01/17 10:30:29;;;;;;;7.27;3.33;;;;;;;;;;5115138;28;20255;-54
2021/01/17 10:33:07;;;;;;;5.10;3.27;;;;;;;;;;5117217;28;20244;-54
2021/01/17 10:35:34;;;;;;;6.40;3.33;;;;;;;;;;5117156;28;20252;-54
2021/01/17 10:38:04;;;;;;;7.57;3.37;;;;;;;;;;5117159;28;20293;-54
2021/01/17 10:40:31;;;;;;;6.17;2.73;;;;;;;;;;5117180;28;20342;-54
2021/01/17 10:43:00;;;;;;;7.50;3.30;;;;;;;;;;5117204;28;20579;-54
2021/01/17 10:45:27;;;;;;;11.03;3.30;;;;;;;;;;5117033;28;20313;-54
2021/01/17 10:47:59;;;;;;;6.03;3.30;;;;;;;;;;5116787;28;20338;-54
2021/01/17 10:50:27;;;;;;;6.60;3.30;;;;;;;;;;5116896;28;20248;-54
2021/01/17 10:53:12;;;;;;;3.90;2.53;;;;;;;;;;5116842;28;20656;-54
2021/01/17 10:55:41;;;;;;;6.10;2.40;;;;;;;;;;5116955;28;20259;-54
2021/01/17 10:58:09;;;;;;;5.93;2.97;;;;;;;;;;5116852;28;20110;-54
2021/01/17 11:00:36;;;;;;;11.00;3.07;;;;;;;;;;5116739;28;20255;-54
2021/01/17 11:03:04;;;;;;;6.37;2.60;;;;;;;;;;5116826;28;20374;-54
2021/01/17 11:05:31;;;;;;;4.53;2.77;;;;;;;;;;5116518;28;20252;-54
2021/01/17 11:07:58;;;;;;;4.23;2.40;;;;;;;;;;5116706;28;20244;-54
2021/01/17 11:10:25;;;;;;;4.83;2.33;;;;;;;;;;5116634;28;20256;-54
2021/01/17 11:12:52;;;;;;;3.67;2.10;;;;;;;;;;5116496;28;20780;-54
2021/01/17 11:15:20;;;;;;;3.63;1.90;;;;;;;;;;5116494;28;20256;-54
2021/01/17 11:17:56;;;;;;;4.27;2.10;;;;;;;;;;5116390;28;20780;-54
2021/01/17 11:20:30;;;;;;;4.50;2.80;;;;;;;;;;5116615;28;20252;-54
2021/01/17 11:23:05;;;;;;;5.80;2.37;;;;;;;;;;5116425;28;20244;-54
2021/01/17 11:25:32;;;;;;;3.72;2.20;;;;;;;;;;5116315;28;20770;-54
2021/01/17 11:28:00;;;;;;;6.03;2.80;;;;;;;;;;5116158;28;20111;-54
2021/01/17 11:30:28;;;;;;;6.60;2.67;;;;;;;;;;5116134;28;20264;-54
2021/01/17 11:33:06;;;;;;;3.50;2.20;;;;;;;;;;5116159;28;20309;-54
2021/01/17 11:35:33;;;;;;;4.77;2.87;;;;;;;;;;5116046;28;20263;-54
2021/01/17 11:38:00;;;;;;;4.33;2.80;;;;;;;;;;5115918;28;20329;-54
2021/01/17 11:40:26;;;;;;;4.47;2.37;;;;;;;;;;5116024;28;20283;-54
2021/01/17 11:43:04;;;;;;;4.83;2.53;;;;;;;;;;5115137;28;20350;-54
2021/01/17 11:45:31;;;;;;;4.07;2.43;;;;;;;;;;5115907;28;20252;-54
2021/01/17 11:47:58;;;;;;;3.33;2.23;;;;;;;;;;5115797;28;20317;-54
2021/01/17 11:50:25;;;;;;;5.17;2.73;;;;;;;;;;5115737;28;20244;-54
2021/01/17 11:52:59;;;;;;;4.17;2.57;;;;;;;;;;5115870;28;20247;-54
2021/01/17 11:55:27;;;;;;;5.30;2.20;;;;;;;;;;5115525;28;20588;-54
2021/01/17 11:58:14;;;;;;;4.43;2.20;;;;;;;;;;5115490;28;20339;-54
2021/01/17 12:00:47;;;;;;;4.37;2.50;;;;;;;;;;5115587;28;20244;-54
2021/01/17 12:03:24;;;;;;;4.80;2.50;;;;;;;;;;5115553;28;20283;-54
2021/01/17 12:06:03;;;;;;;4.80;2.50;;;;;;;;;;5115482;28;20244;-54
2021/01/17 12:08:48;;;;;;;5.27;2.60;;;;;;;;;;5115467;28;20256;-54
2021/01/17 12:11:30;;;;;;;3.58;2.22;;;;;;;;;;5115381;27;20276;-54
2021/01/17 12:13:57;;;;;;;4.77;2.77;;;;;;;;;;5115280;28;20420;-54
2021/01/17 12:16:31;;;;;;;3.80;2.60;;;;;;;;;;5114379;28;20351;-54
2021/01/17 12:18:58;;;;;;;6.03;3.10;;;;;;;;;;5115059;28;20302;-54
2021/01/17 12:21:26;;;;;;;5.17;3.20;;;;;;;;;;5115061;28;20244;-54
2021/01/17 12:23:53;;;;;;;5.60;2.90;;;;;;;;;;5115104;28;20248;-54
2021/01/17 12:26:20;;;;;;;4.10;2.53;;;;;;;;;;5115125;28;20639;-54
2021/01/17 12:28:47;;;;;;;6.53;2.90;;;;;;;;;;5115150;28;20252;-54
2021/01/17 12:31:15;;;;;;;5.03;3.40;;;;;;;;;;5114992;28;20785;-54
2021/01/17 12:33:42;;;;;;;5.30;3.10;;;;;;;;;;5114995;28;20390;-54
2021/01/17 12:36:09;;;;;;;6.37;3.40;;;;;;;;;;5114995;28;20386;-54
2021/01/17 12:38:36;;;;;;;6.20;3.40;;;;;;;;;;5115004;28;20681;-54
2021/01/17 12:41:07;;;;;;;7.93;3.93;;;;;;;;;;5114816;28;20330;-54
2021/01/17 12:43:34;;;;;;;7.37;3.70;;;;;;;;;;5114753;28;20252;-54
2021/01/17 12:46:01;;;;;;;5.63;3.57;;;;;;;;;;5114756;28;20286;-54
2021/01/17 12:48:27;;;;;;;5.47;3.57;;;;;;;;;;5114736;28;20746;-54
2021/01/17 12:50:54;;;;;;;8.30;3.33;;;;;;;;;;5114770;28;20252;-54
2021/01/17 12:53:34;;;;;;;9.10;4.83;;;;;;;;;;5114391;28;20287;-54
2021/01/17 12:56:01;;;;;;;10.57;5.80;;;;;;;;;;5114405;28;20610;-54
2021/01/17 12:58:28;;;;;;;5.47;3.43;;;;;;;;;;5114273;28;20340;-54
2021/01/17 13:00:54;;;;;;;7.80;4.27;;;;;;;;;;5114443;28;20606;-54
2021/01/17 13:03:21;;;;;;;7.37;4.77;;;;;;;;;;5114328;28;20599;-54
2021/01/17 13:05:51;;;;;;;13.27;6.90;;;;;;;;;;5114210;28;20252;-54
2021/01/17 13:08:18;;;;;;;8.30;5.07;;;;;;;;;;5114246;28;20287;-54
2021/01/17 13:10:46;;;;;;;7.27;4.80;;;;;;;;;;5114411;28;20706;-54
2021/01/17 13:13:16;;;;;;;7.23;4.17;;;;;;;;;;5114158;27;20287;-54
2021/01/17 13:15:46;;;;;;;21.60;7.90;;;;;;;;;;5114177;28;20252;-54
2021/01/17 13:18:12;;;;;;;18.17;9.27;;;;;;;;;;5114081;28;20431;-54
2021/01/17 13:20:39;;;;;;;12.93;7.60;;;;;;;;;;5114108;28;20285;-54
2021/01/17 13:23:06;;;;;;;7.87;5.47;;;;;;;;;;5113947;28;20255;-54
2021/01/17 13:25:33;;;;;;;11.23;7.00;;;;;;;;;;5114335;28;20734;-54
2021/01/17 13:28:00;;;;;;;16.93;9.63;;;;;;;;;;5113840;28;20252;-54
2021/01/17 13:30:27;;;;;;;12.20;7.83;;;;;;;;;;5113893;28;20606;-54
2021/01/17 13:32:54;;;;;;;8.13;5.77;;;;;;;;;;5113819;28;20259;-54
2021/01/17 13:35:20;;;;;;;8.30;4.20;;;;;;;;;;5113678;28;20263;-54
2021/01/17 13:37:49;;;;;;;9.67;4.30;;;;;;;;;;5113685;28;20288;-54
2021/01/17 13:40:16;;;;;;;8.23;4.40;;;;;;;;;;5113751;28;20286;-54
2021/01/17 13:42:43;;;;;;;5.17;3.10;;;;;;;;;;5113739;28;20761;-54
2021/01/17 13:45:10;;;;;;;6.03;4.20;;;;;;;;;;5113690;28;20264;-54
2021/01/17 13:47:39;;;;;;;6.97;5.13;;;;;;;;;;5113651;28;20258;-54
2021/01/17 13:50:06;;;;;;;7.07;4.97;;;;;;;;;;5113667;28;20260;-54
2021/01/17 13:52:33;;;;;;;8.77;4.27;;;;;;;;;;5113923;28;20809;-54
2021/01/17 13:55:00;;;;;;;6.57;4.50;;;;;;;;;;5113445;28;20281;-55
2021/01/17 13:57:27;;;;;;;7.97;4.83;;;;;;;;;;5113479;28;20303;-54
2021/01/17 13:59:54;;;;;;;8.00;4.43;;;;;;;;;;5113328;28;20282;-54
2021/01/17 14:02:21;;;;;;;7.47;4.70;;;;;;;;;;5113661;28;20692;-54
2021/01/17 14:04:48;;;;;;;9.93;4.60;;;;;;;;;;5112782;28;20618;-54
2021/01/17 14:07:16;;;;;;;11.23;4.60;;;;;;;;;;5113257;28;20598;-54
2021/01/17 14:09:43;;;;;;;10.27;4.70;;;;;;;;;;5113194;28;20255;-54
2021/01/17 14:12:16;;;;;;;7.27;4.40;;;;;;;;;;5113398;27;20276;-54
2021/01/17 14:14:45;;;;;;;7.93;4.93;;;;;;;;;;5113298;28;20267;-54
2021/01/17 14:17:12;;;;;;;8.43;4.73;;;;;;;;;;5113250;28;20315;-55
2021/01/17 14:19:38;;;;;;;9.90;4.33;;;;;;;;;;5113333;28;20283;-54
2021/01/17 14:22:05;;;;;;;7.80;3.90;;;;;;;;;;5113197;28;20594;-54
2021/01/17 14:24:32;;;;;;;6.97;3.90;;;;;;;;;;5113204;28;20283;-54
2021/01/17 14:26:59;;;;;;;7.27;4.33;;;;;;;;;;5113335;28;20248;-54
2021/01/17 14:29:26;;;;;;;7.17;3.50;;;;;;;;;;5113161;28;20653;-54
2021/01/17 14:31:53;;;;;;;6.73;3.53;;;;;;;;;;5113076;28;20369;-54
2021/01/17 14:34:20;;;;;;;5.73;3.13;;;;;;;;;;5113162;28;20262;-54
2021/01/17 14:36:51;;;;;;;8.07;4.07;;;;;;;;;;5113185;28;20243;-54
2021/01/17 14:39:22;;;;;;;6.40;2.87;;;;;;;;;;5113017;28;20340;-55
2021/01/17 14:41:49;;;;;;;7.27;3.60;;;;;;;;;;5113147;28;20020;-55
2021/01/17 14:44:28;;;;;;;5.77;3.70;;;;;;;;;;5113229;28;20308;-54
2021/01/17 14:46:56;;;;;;;6.13;3.40;;;;;;;;;;5111013;28;20720;-55
2021/01/17 14:49:25;;;;;;;7.07;4.00;;;;;;;;;;5113081;28;20478;-55
2021/01/17 14:51:52;;;;;;;11.60;4.77;;;;;;;;;;5113045;28;20028;-55
2021/01/17 14:54:20;;;;;;;7.73;4.30;;;;;;;;;;5112907;28;20252;-54